Rush City, MN

11:12 PM CDT on October 25, 2014 (GMT -0500)
Hinckley | Change Station
CLOSE
Current Station
Airport
Location: Hinckley,
Elevation: 1020 ft
Nearby Weather Stations

Elev 1020 ft 46.02 °N, 92.90 °W | Updated 8 minutes ago

Partly Cloudy
Partly Cloudy
37 °F
Feels Like 37 °F
N
0
Wind Variable Wind from North

Today
High -- | Low -- °F
--% Chance of Precip.
Yesterday
High -- | Low -- °F
Precip. -- in
7:41 AM 6:08 PM
Waxing Crescent, 6% visible
Pressure 30.03 in
Visibility 10.0 miles
Clouds Clear
Dew Point 30 °F
Humidity 75%
Rainfall 0.00 in
Snow Depth Not available.
UV 0 out of 12
Pollen 1.80 out of 12
Air Quality Not available.
Flu Activity Sporadic
METAR K04W 260404Z AUTO 00000KT 10SM CLR 03/M01 A3003 RMK AO2

More Conditions Fewer Conditions

Pressure 30.03 in
Visibility 10.0 miles
Clouds Clear
Dew Point 30 °F
Humidity 75%
Rainfall 0.00 in
Snow Depth Not available.
UV 0 out of 12
Pollen 1.80 out of 12
Air Quality Not available.
Flu Activity Sporadic
METAR K04W 260404Z AUTO 00000KT 10SM CLR 03/M01 A3003 RMK AO2

More Conditions Fewer Conditions

10-Day Weather Forecast

Almanac

Astronomy

Oct. 25, 2014 Rise Set
Actual Time 7:41 AM CDT 6:08 PM CDT
Civil Twilight 7:11 AM CDT 6:39 PM CDT
Nautical Twilight 6:36 AM CDT 7:14 PM CDT
Astronomical Twilight 6:02 AM CDT 7:48 PM CDT
Moon 9:25 AM CDT (10/25) 7:27 PM CDT (10/25)
Length of Visible Light 11h 27m
Length of Day
10h 26m
Tomorrow will be 2m 59s shorter.
Waxing Crescent, 6% of the Moon is Illuminated
Oct 26
Waxing Crescent
Oct 30
First Quarter
Nov 6
Full
Nov 14
Last Quarter
Nov 22
New

Today's Extremes

State Highs State Lows

Community

WunderPhotos

Upload Photos

1,765,107 photos uploaded!

Nearby

Snow Depth

Station Depth Elevation
No new snow has been reported.

Earthquake Activity

City Distance Mag. Time & Date
No recent earthquake activity has been reported nearby.
Minimum magnitude displayed is 2.5.

Coastal Water Temperatures

Place Temperature
No Stations Reporting

Nearby Weather Stations